sensor_id;sensor_type;location;lat;lon;timestamp;pressure;altitude;pressure_sealevel;temperature;humidity
72798;BME280;61084;55.816;37.036;2023-03-01T00:02:19;98713.78;;;-3.40;55.52
72798;BME280;61084;55.816;37.036;2023-03-01T00:04:46;98724.91;;;-3.40;55.51
72798;BME280;61084;55.816;37.036;2023-03-01T00:07:12;98725.81;;;-3.44;54.78
72798;BME280;61084;55.816;37.036;2023-03-01T00:09:37;98719.84;;;-3.46;55.88
72798;BME280;61084;55.816;37.036;2023-03-01T00:12:04;98719.78;;;-3.43;55.51
72798;BME280;61084;55.816;37.036;2023-03-01T00:14:29;98717.25;;;-3.44;55.80
72798;BME280;61084;55.816;37.036;2023-03-01T00:16:55;98713.00;;;-3.47;55.29
72798;BME280;61084;55.816;37.036;2023-03-01T00:19:21;98714.75;;;-3.50;55.10
72798;BME280;61084;55.816;37.036;2023-03-01T00:21:48;98719.88;;;-3.52;55.45
72798;BME280;61084;55.816;37.036;2023-03-01T00:24:14;98713.91;;;-3.54;55.53
72798;BME280;61084;55.816;37.036;2023-03-01T00:26:40;98716.50;;;-3.58;55.12
72798;BME280;61084;55.816;37.036;2023-03-01T00:29:06;98719.06;;;-3.58;56.31
72798;BME280;61084;55.816;37.036;2023-03-01T00:31:33;98713.97;;;-3.63;55.24
72798;BME280;61084;55.816;37.036;2023-03-01T00:34:01;98713.16;;;-3.66;55.38
72798;BME280;61084;55.816;37.036;2023-03-01T00:36:29;98708.91;;;-3.70;55.58
72798;BME280;61084;55.816;37.036;2023-03-01T00:38:56;98702.94;;;-3.74;55.69
72798;BME280;61084;55.816;37.036;2023-03-01T00:41:22;98702.13;;;-3.74;55.85
72798;BME280;61084;55.816;37.036;2023-03-01T00:43:49;98697.00;;;-3.74;56.27
72798;BME280;61084;55.816;37.036;2023-03-01T00:46:20;98708.13;;;-3.78;56.13
72798;BME280;61084;55.816;37.036;2023-03-01T00:48:46;98706.41;;;-3.79;55.75
72798;BME280;61084;55.816;37.036;2023-03-01T00:51:18;98710.69;;;-3.80;56.75
72798;BME280;61084;55.816;37.036;2023-03-01T00:53:44;98697.91;;;-3.85;56.39
72798;BME280;61084;55.816;37.036;2023-03-01T00:56:12;98697.94;;;-3.88;56.57
72798;BME280;61084;55.816;37.036;2023-03-01T00:58:38;98703.09;;;-3.91;56.44
72798;BME280;61084;55.816;37.036;2023-03-01T01:01:13;98703.97;;;-3.92;56.47
72798;BME280;61084;55.816;37.036;2023-03-01T01:03:56;98703.97;;;-3.92;56.69
72798;BME280;61084;55.816;37.036;2023-03-01T01:06:25;98687.78;;;-3.98;56.54
72798;BME280;61084;55.816;37.036;2023-03-01T01:08:53;98703.13;;;-3.97;56.83
72798;BME280;61084;55.816;37.036;2023-03-01T01:11:20;98693.75;;;-3.96;57.26
72798;BME280;61084;55.816;37.036;2023-03-01T01:13:46;98703.13;;;-4.00;56.89
72798;BME280;61084;55.816;37.036;2023-03-01T01:16:13;98699.75;;;-4.02;56.94
72798;BME280;61084;55.816;37.036;2023-03-01T01:18:39;98698.91;;;-4.05;56.27
72798;BME280;61084;55.816;37.036;2023-03-01T01:21:10;98688.69;;;-4.10;57.29
72798;BME280;61084;55.816;37.036;2023-03-01T01:23:37;98700.66;;;-4.12;57.12
72798;BME280;61084;55.816;37.036;2023-03-01T01:26:27;98699.78;;;-4.11;57.67
72798;BME280;61084;55.816;37.036;2023-03-01T01:28:53;98706.66;;;-4.14;57.50
72798;BME280;61084;55.816;37.036;2023-03-01T01:31:20;98710.91;;;-4.15;57.51
72798;BME280;61084;55.816;37.036;2023-03-01T01:33:49;98705.81;;;-4.16;57.36
72798;BME280;61084;55.816;37.036;2023-03-01T01:36:16;98701.56;;;-4.19;57.33
72798;BME280;61084;55.816;37.036;2023-03-01T01:38:42;98705.81;;;-4.13;57.33
72798;BME280;61084;55.816;37.036;2023-03-01T01:41:09;98705.81;;;-4.13;57.58
72798;BME280;61084;55.816;37.036;2023-03-01T01:43:42;98708.38;;;-4.13;57.84
72798;BME280;61084;55.816;37.036;2023-03-01T01:48:55;98721.19;;;-4.13;57.75
72798;BME280;61084;55.816;37.036;2023-03-01T01:51:28;98710.06;;;-4.14;57.81
72798;BME280;61084;55.816;37.036;2023-03-01T01:54:09;98711.75;;;-4.13;57.86
72798;BME280;61084;55.816;37.036;2023-03-01T01:56:38;98712.63;;;-4.12;57.95
72798;BME280;61084;55.816;37.036;2023-03-01T01:59:06;98711.75;;;-4.13;58.12
72798;BME280;61084;55.816;37.036;2023-03-01T02:01:32;98716.91;;;-4.14;58.30
72798;BME280;61084;55.816;37.036;2023-03-01T02:03:58;98721.16;;;-4.10;58.21
72798;BME280;61084;55.816;37.036;2023-03-01T02:06:37;98718.59;;;-4.12;57.61
72798;BME280;61084;55.816;37.036;2023-03-01T02:09:08;98716.91;;;-4.16;57.90
72798;BME280;61084;55.816;37.036;2023-03-01T02:11:36;98723.75;;;-4.19;58.07
72798;BME280;61084;55.816;37.036;2023-03-01T02:14:03;98721.22;;;-4.22;58.04
72798;BME280;61084;55.816;37.036;2023-03-01T02:16:30;98715.25;;;-4.26;58.03
72798;BME280;61084;55.816;37.036;2023-03-01T02:18:57;98715.25;;;-4.23;57.74
72798;BME280;61084;55.816;37.036;2023-03-01T02:21:37;98711.81;;;-4.22;58.29
72798;BME280;61084;55.816;37.036;2023-03-01T02:24:21;98712.66;;;-4.21;57.94
72798;BME280;61084;55.816;37.036;2023-03-01T02:26:55;98710.97;;;-4.25;58.35
72798;BME280;61084;55.816;37.036;2023-03-01T02:29:23;98714.44;;;-4.31;58.45
72798;BME280;61084;55.816;37.036;2023-03-01T02:31:51;98715.28;;;-4.29;58.48
72798;BME280;61084;55.816;37.036;2023-03-01T02:34:21;98723.81;;;-4.27;58.42
72798;BME280;61084;55.816;37.036;2023-03-01T02:36:50;98722.13;;;-4.31;58.53
72798;BME280;61084;55.816;37.036;2023-03-01T02:39:21;98717.84;;;-4.35;57.99
72798;BME280;61084;55.816;37.036;2023-03-01T02:41:51;98723.84;;;-4.36;58.30
72798;BME280;61084;55.816;37.036;2023-03-01T02:44:17;98720.44;;;-4.38;58.22
72798;BME280;61084;55.816;37.036;2023-03-01T02:46:51;98723.03;;;-4.39;58.53
72798;BME280;61084;55.816;37.036;2023-03-01T02:55:06;98720.50;;;-4.47;58.41
72798;BME280;61084;55.816;37.036;2023-03-01T02:57:36;98722.19;;;-4.49;58.57
72798;BME280;61084;55.816;37.036;2023-03-01T03:00:09;98720.50;;;-4.48;58.79
72798;BME280;61084;55.816;37.036;2023-03-01T03:02:36;98721.38;;;-4.52;58.61
72798;BME280;61084;55.816;37.036;2023-03-01T03:05:27;98729.06;;;-4.55;58.73
72798;BME280;61084;55.816;37.036;2023-03-01T03:07:58;98727.38;;;-4.61;58.98
72798;BME280;61084;55.816;37.036;2023-03-01T03:10:34;98727.41;;;-4.66;58.68
72798;BME280;61084;55.816;37.036;2023-03-01T03:13:07;98726.56;;;-4.68;58.99
72798;BME280;61084;55.816;37.036;2023-03-01T03:15:33;98724.84;;;-4.70;59.01
72798;BME280;61084;55.816;37.036;2023-03-01T03:18:06;98726.53;;;-4.69;58.88
72798;BME280;61084;55.816;37.036;2023-03-01T03:20:32;98726.56;;;-4.68;59.08
72798;BME280;61084;55.816;37.036;2023-03-01T03:22:58;98726.53;;;-4.69;58.95
72798;BME280;61084;55.816;37.036;2023-03-01T03:25:25;98725.69;;;-4.68;59.03
72798;BME280;61084;55.816;37.036;2023-03-01T03:27:52;98721.44;;;-4.69;59.03
72798;BME280;61084;55.816;37.036;2023-03-01T03:30:24;98722.28;;;-4.72;59.00
72798;BME280;61084;55.816;37.036;2023-03-01T03:32:50;98714.63;;;-4.76;59.09
72798;BME280;61084;55.816;37.036;2023-03-01T03:35:25;98723.19;;;-4.79;58.90
72798;BME280;61084;55.816;37.036;2023-03-01T03:37:52;98723.16;;;-4.80;58.78
72798;BME280;61084;55.816;37.036;2023-03-01T03:42:54;98724.03;;;-4.84;58.92
72798;BME280;61084;55.816;37.036;2023-03-01T03:45:20;98727.47;;;-4.88;59.32
72798;BME280;61084;55.816;37.036;2023-03-01T03:47:46;98725.75;;;-4.91;59.05
72798;BME280;61084;55.816;37.036;2023-03-01T03:50:14;98727.47;;;-4.93;59.40
72798;BME280;61084;55.816;37.036;2023-03-01T03:52:40;98731.75;;;-4.95;59.26
72798;BME280;61084;55.816;37.036;2023-03-01T03:55:08;98736.00;;;-4.95;59.23
72798;BME280;61084;55.816;37.036;2023-03-01T03:57:35;98736.84;;;-4.98;59.37
72798;BME280;61084;55.816;37.036;2023-03-01T04:00:01;98737.72;;;-4.99;59.52
72798;BME280;61084;55.816;37.036;2023-03-01T04:02:44;98736.88;;;-5.01;59.23
72798;BME280;61084;55.816;37.036;2023-03-01T04:05:12;98734.31;;;-5.01;59.55
72798;BME280;61084;55.816;37.036;2023-03-01T04:07:38;98744.53;;;-5.02;59.04
72798;BME280;61084;55.816;37.036;2023-03-01T04:10:06;98741.97;;;-5.02;59.45
72798;BME280;61084;55.816;37.036;2023-03-01T04:12:33;98749.66;;;-5.02;59.62
72798;BME280;61084;55.816;37.036;2023-03-01T04:15:03;98747.09;;;-5.04;59.60
72798;BME280;61084;55.816;37.036;2023-03-01T04:17:42;98744.56;;;-5.08;59.64
72798;BME280;61084;55.816;37.036;2023-03-01T04:20:13;98746.28;;;-5.10;59.56
72798;BME280;61084;55.816;37.036;2023-03-01T04:22:43;98751.38;;;-5.09;59.62
72798;BME280;61084;55.816;37.036;2023-03-01T04:25:13;98753.09;;;-5.11;59.55
72798;BME280;61084;55.816;37.036;2023-03-01T04:27:40;98753.94;;;-5.10;59.58
72798;BME280;61084;55.816;37.036;2023-03-01T04:30:06;98755.63;;;-5.11;59.65
72798;BME280;61084;55.816;37.036;2023-03-01T04:32:35;98753.13;;;-5.15;59.69
72798;BME280;61084;55.816;37.036;2023-03-01T04:35:01;98766.75;;;-5.13;59.77
72798;BME280;61084;55.816;37.036;2023-03-01T04:37:29;98766.75;;;-5.12;59.83
72798;BME280;61084;55.816;37.036;2023-03-01T04:39:55;98761.63;;;-5.10;59.93
72798;BME280;61084;55.816;37.036;2023-03-01T04:42:21;98766.72;;;-5.09;59.65
72798;BME280;61084;55.816;37.036;2023-03-01T04:44:46;98773.56;;;-5.08;59.63
72798;BME280;61084;55.816;37.036;2023-03-01T04:47:12;98774.38;;;-5.09;59.78
72798;BME280;61084;55.816;37.036;2023-03-01T04:49:38;98766.72;;;-5.10;59.74
72798;BME280;61084;55.816;37.036;2023-03-01T04:52:05;98774.41;;;-5.12;59.99
72798;BME280;61084;55.816;37.036;2023-03-01T04:54:32;98769.28;;;-5.09;59.85
72798;BME280;61084;55.816;37.036;2023-03-01T04:56:58;98781.25;;;-5.09;60.01
72798;BME280;61084;55.816;37.036;2023-03-01T04:59:24;98779.53;;;-5.13;59.94
72798;BME280;61084;55.816;37.036;2023-03-01T05:01:54;98776.97;;;-5.13;59.89
72798;BME280;61084;55.816;37.036;2023-03-01T05:04:24;98778.66;;;-5.12;59.65
72798;BME280;61084;55.816;37.036;2023-03-01T05:06:50;98774.38;;;-5.09;59.80
72798;BME280;61084;55.816;37.036;2023-03-01T05:09:16;98777.81;;;-5.04;59.94
72798;BME280;61084;55.816;37.036;2023-03-01T05:11:42;98778.69;;;-5.00;59.75
72798;BME280;61084;55.816;37.036;2023-03-01T05:14:09;98780.34;;;-4.98;59.83
72798;BME280;61084;55.816;37.036;2023-03-01T05:16:35;98783.78;;;-4.99;59.50
72798;BME280;61084;55.816;37.036;2023-03-01T05:19:02;98784.63;;;-4.97;59.74
72798;BME280;61084;55.816;37.036;2023-03-01T05:21:38;98789.75;;;-4.92;59.48
72798;BME280;61084;55.816;37.036;2023-03-01T05:24:23;98788.88;;;-4.88;59.66
72798;BME280;61084;55.816;37.036;2023-03-01T05:26:49;98794.81;;;-4.80;59.91
72798;BME280;61084;55.816;37.036;2023-03-01T05:29:18;98789.72;;;-4.77;59.55
72798;BME280;61084;55.816;37.036;2023-03-01T05:31:55;98793.94;;;-4.67;59.41
72798;BME280;61084;55.816;37.036;2023-03-01T05:34:29;98791.38;;;-4.61;59.58
72798;BME280;61084;55.816;37.036;2023-03-01T05:36:55;98794.78;;;-4.57;58.94
72798;BME280;61084;55.816;37.036;2023-03-01T05:39:22;98800.75;;;-4.52;59.30
72798;BME280;61084;55.816;37.036;2023-03-01T05:41:55;98803.25;;;-4.45;59.18
72798;BME280;61084;55.816;37.036;2023-03-01T05:44:22;98796.41;;;-4.37;59.38
72798;BME280;61084;55.816;37.036;2023-03-01T05:46:48;98801.50;;;-4.32;58.89
72798;BME280;61084;55.816;37.036;2023-03-01T05:49:15;98803.22;;;-4.31;58.66
72798;BME280;61084;55.816;37.036;2023-03-01T05:51:41;98813.47;;;-4.39;58.63
72798;BME280;61084;55.816;37.036;2023-03-01T05:54:09;98802.41;;;-4.38;58.65
72798;BME280;61084;55.816;37.036;2023-03-01T05:56:36;98821.16;;;-4.34;58.91
72798;BME280;61084;55.816;37.036;2023-03-01T05:59:03;98821.16;;;-4.33;58.89
72798;BME280;61084;55.816;37.036;2023-03-01T06:01:34;98816.84;;;-4.25;58.55
72798;BME280;61084;55.816;37.036;2023-03-01T06:04:00;98821.94;;;-4.22;59.07
72798;BME280;61084;55.816;37.036;2023-03-01T06:06:26;98821.97;;;-4.23;58.97
72798;BME280;61084;55.816;37.036;2023-03-01T06:08:52;98823.66;;;-4.24;58.74
72798;BME280;61084;55.816;37.036;2023-03-01T06:11:19;98827.13;;;-4.26;58.58
72798;BME280;61084;55.816;37.036;2023-03-01T06:13:45;98828.78;;;-4.19;58.35
72798;BME280;61084;55.816;37.036;2023-03-01T06:16:12;98828.78;;;-4.18;58.74
72798;BME280;61084;55.816;37.036;2023-03-01T06:18:38;98823.66;;;-4.19;59.00
72798;BME280;61084;55.816;37.036;2023-03-01T06:21:05;98826.25;;;-4.27;59.00
72798;BME280;61084;55.816;37.036;2023-03-01T06:23:31;98822.81;;;-4.26;58.96
72798;BME280;61084;55.816;37.036;2023-03-01T06:25:57;98820.25;;;-4.26;59.02
72798;BME280;61084;55.816;37.036;2023-03-01T06:28:23;98829.63;;;-4.17;58.26
72798;BME280;61084;55.816;37.036;2023-03-01T06:30:51;98827.91;;;-4.09;58.58
72798;BME280;61084;55.816;37.036;2023-03-01T06:33:18;98832.97;;;-3.99;58.25
72798;BME280;61084;55.816;37.036;2023-03-01T06:35:48;98842.31;;;-3.86;58.09
72798;BME280;61084;55.816;37.036;2023-03-01T06:38:13;98842.28;;;-3.76;57.65
72798;BME280;61084;55.816;37.036;2023-03-01T06:40:45;98837.97;;;-3.73;57.85
72798;BME280;61084;55.816;37.036;2023-03-01T06:43:16;98848.22;;;-3.70;58.55
72798;BME280;61084;55.816;37.036;2023-03-01T06:45:42;98849.06;;;-3.68;58.70
72798;BME280;61084;55.816;37.036;2023-03-01T06:48:08;98858.44;;;-3.64;58.26
72798;BME280;61084;55.816;37.036;2023-03-01T06:50:34;98849.84;;;-3.57;57.74
72798;BME280;61084;55.816;37.036;2023-03-01T06:53:00;98841.28;;;-3.56;56.31
72798;BME280;61084;55.816;37.036;2023-03-01T06:55:26;98848.06;;;-3.46;57.76
72798;BME280;61084;55.816;37.036;2023-03-01T06:57:59;98844.56;;;-3.36;57.11
72798;BME280;61084;55.816;37.036;2023-03-01T07:00:25;98853.03;;;-3.20;57.96
72798;BME280;61084;55.816;37.036;2023-03-01T07:02:53;98850.38;;;-3.13;57.79
72798;BME280;61084;55.816;37.036;2023-03-01T07:05:19;98849.50;;;-3.07;57.13
72798;BME280;61084;55.816;37.036;2023-03-01T07:07:45;98862.28;;;-3.04;56.65
72798;BME280;61084;55.816;37.036;2023-03-01T07:10:11;98860.47;;;-2.90;57.29
72798;BME280;61084;55.816;37.036;2023-03-01T07:12:38;98857.84;;;-2.82;55.49
72798;BME280;61084;55.816;37.036;2023-03-01T07:15:04;98863.78;;;-2.77;56.56
72798;BME280;61084;55.816;37.036;2023-03-01T07:17:30;98874.06;;;-2.77;57.06
72798;BME280;61084;55.816;37.036;2023-03-01T07:19:56;98873.19;;;-2.75;56.80
72798;BME280;61084;55.816;37.036;2023-03-01T07:22:22;98870.50;;;-2.63;57.33
72798;BME280;61084;55.816;37.036;2023-03-01T07:24:48;98876.41;;;-2.50;57.58
72798;BME280;61084;55.816;37.036;2023-03-01T07:27:14;98875.50;;;-2.48;56.89
72798;BME280;61084;55.816;37.036;2023-03-01T07:29:39;98883.97;;;-2.38;56.70
72798;BME280;61084;55.816;37.036;2023-03-01T07:32:07;98874.59;;;-2.42;55.59
72798;BME280;61084;55.816;37.036;2023-03-01T07:34:32;98887.38;;;-2.36;57.49
72798;BME280;61084;55.816;37.036;2023-03-01T07:36:58;98893.31;;;-2.33;56.13
72798;BME280;61084;55.816;37.036;2023-03-01T07:39:24;98883.94;;;-2.37;56.52
72798;BME280;61084;55.816;37.036;2023-03-01T07:41:50;98880.44;;;-2.26;56.88
72798;BME280;61084;55.816;37.036;2023-03-01T07:44:20;98888.88;;;-2.15;56.76
72798;BME280;61084;55.816;37.036;2023-03-01T07:46:46;98885.28;;;-2.01;56.36
72798;BME280;61084;55.816;37.036;2023-03-01T07:49:12;98880.94;;;-1.94;56.05
72798;BME280;61084;55.816;37.036;2023-03-01T07:51:38;98880.94;;;-1.96;56.71
72798;BME280;61084;55.816;37.036;2023-03-01T07:54:04;98876.63;;;-1.94;57.27
72798;BME280;61084;55.816;37.036;2023-03-01T07:56:29;98885.19;;;-1.92;56.75
72798;BME280;61084;55.816;37.036;2023-03-01T07:58:55;98900.50;;;-1.84;56.56
72798;BME280;61084;55.816;37.036;2023-03-01T08:01:21;98896.97;;;-1.76;56.40
72798;BME280;61084;55.816;37.036;2023-03-01T08:03:47;98893.56;;;-1.76;57.42
72798;BME280;61084;55.816;37.036;2023-03-01T08:06:15;98889.38;;;-1.86;56.91
72798;BME280;61084;55.816;37.036;2023-03-01T08:08:41;98890.31;;;-1.93;55.68
72798;BME280;61084;55.816;37.036;2023-03-01T08:11:09;98894.59;;;-1.91;56.47
72798;BME280;61084;55.816;37.036;2023-03-01T08:13:35;98887.69;;;-1.86;56.13
72798;BME280;61084;55.816;37.036;2023-03-01T08:16:07;98883.34;;;-1.81;56.56
72798;BME280;61084;55.816;37.036;2023-03-01T08:18:33;98891.81;;;-1.76;56.89
72798;BME280;61084;55.816;37.036;2023-03-01T08:21:06;98891.81;;;-1.76;56.39
72798;BME280;61084;55.816;37.036;2023-03-01T08:23:33;98890.09;;;-1.72;55.83
72798;BME280;61084;55.816;37.036;2023-03-01T08:26:10;98902.81;;;-1.63;57.21
72798;BME280;61084;55.816;37.036;2023-03-01T08:28:38;98900.97;;;-1.52;56.08
72798;BME280;61084;55.816;37.036;2023-03-01T08:31:18;98902.50;;;-1.39;56.56
72798;BME280;61084;55.816;37.036;2023-03-01T08:34:07;98908.41;;;-1.32;57.06
72798;BME280;61084;55.816;37.036;2023-03-01T08:36:39;98910.09;;;-1.30;56.35
72798;BME280;61084;55.816;37.036;2023-03-01T08:39:06;98910.09;;;-1.30;56.89
72798;BME280;61084;55.816;37.036;2023-03-01T08:41:32;98926.38;;;-1.26;57.16
72798;BME280;61084;55.816;37.036;2023-03-01T08:43:58;98917.03;;;-1.33;56.44
72798;BME280;61084;55.816;37.036;2023-03-01T08:46:31;98930.56;;;-1.21;57.25
72798;BME280;61084;55.816;37.036;2023-03-01T08:48:58;98927.81;;;-1.09;57.78
72798;BME280;61084;55.816;37.036;2023-03-01T08:51:24;98932.88;;;-1.01;57.44
72798;BME280;61084;55.816;37.036;2023-03-01T08:53:51;98922.50;;;-0.97;57.72
72798;BME280;61084;55.816;37.036;2023-03-01T08:56:17;98922.31;;;-0.85;57.56
72798;BME280;61084;55.816;37.036;2023-03-01T08:58:47;98921.47;;;-0.87;57.04
72798;BME280;61084;55.816;37.036;2023-03-01T09:01:17;98926.69;;;-0.90;56.27
72798;BME280;61084;55.816;37.036;2023-03-01T09:03:44;98931.06;;;-0.95;56.35
72798;BME280;61084;55.816;37.036;2023-03-01T09:06:10;98938.81;;;-0.98;57.48
72798;BME280;61084;55.816;37.036;2023-03-01T09:08:38;98941.69;;;-1.19;56.24
72798;BME280;61084;55.816;37.036;2023-03-01T09:11:05;98934.03;;;-1.22;56.12
72798;BME280;61084;55.816;37.036;2023-03-01T09:13:31;98937.28;;;-1.11;57.16
72798;BME280;61084;55.816;37.036;2023-03-01T09:15:58;98948.34;;;-1.04;56.40
72798;BME280;61084;55.816;37.036;2023-03-01T09:18:24;98937.44;;;-1.21;55.60
72798;BME280;61084;55.816;37.036;2023-03-01T09:20:50;98940.16;;;-1.32;56.84
72798;BME280;61084;55.816;37.036;2023-03-01T09:23:15;98941.81;;;-1.26;57.30
72798;BME280;61084;55.816;37.036;2023-03-01T09:25:41;98938.38;;;-1.27;55.75
72798;BME280;61084;55.816;37.036;2023-03-01T09:28:07;98924.63;;;-1.24;55.83
72798;BME280;61084;55.816;37.036;2023-03-01T09:30:32;98945.81;;;-1.06;56.59
72798;BME280;61084;55.816;37.036;2023-03-01T09:32:58;98946.53;;;-0.96;56.99
72798;BME280;61084;55.816;37.036;2023-03-01T09:35:24;98946.50;;;-0.95;56.78
72798;BME280;61084;55.816;37.036;2023-03-01T09:37:51;98950.03;;;-1.00;55.98
72798;BME280;61084;55.816;37.036;2023-03-01T09:40:21;98953.44;;;-1.00;56.68
72798;BME280;61084;55.816;37.036;2023-03-01T09:43:01;98956.09;;;-1.06;56.44
72798;BME280;61084;55.816;37.036;2023-03-01T09:45:39;98955.94;;;-0.95;57.01
72798;BME280;61084;55.816;37.036;2023-03-01T09:48:12;98950.63;;;-0.85;55.71
72798;BME280;61084;55.816;37.036;2023-03-01T09:50:42;98948.75;;;-0.72;55.89
72798;BME280;61084;55.816;37.036;2023-03-01T09:53:13;98950.94;;;-0.49;56.23
72798;BME280;61084;55.816;37.036;2023-03-01T09:55:48;98941.19;;;-0.31;55.62
72798;BME280;61084;55.816;37.036;2023-03-01T09:58:40;98960.72;;;-0.16;54.90
72798;BME280;61084;55.816;37.036;2023-03-01T10:06:50;98957.06;;;-0.05;56.57
72798;BME280;61084;55.816;37.036;2023-03-01T10:09:17;98966.56;;;-0.07;54.51
72798;BME280;61084;55.816;37.036;2023-03-01T10:11:48;98963.28;;;-0.16;53.81
72798;BME280;61084;55.816;37.036;2023-03-01T10:17:10;98953.84;;;-0.17;54.91
72798;BME280;61084;55.816;37.036;2023-03-01T10:19:41;98959.78;;;-0.12;55.60
72798;BME280;61084;55.816;37.036;2023-03-01T10:22:20;98958.91;;;-0.11;55.89
72798;BME280;61084;55.816;37.036;2023-03-01T10:24:47;98961.53;;;-0.14;54.28
72798;BME280;61084;55.816;37.036;2023-03-01T10:27:28;98955.50;;;-0.13;55.18
72798;BME280;61084;55.816;37.036;2023-03-01T10:30:13;98963.25;;;-0.15;54.29
72798;BME280;61084;55.816;37.036;2023-03-01T10:32:45;98959.84;;;-0.17;55.09
72798;BME280;61084;55.816;37.036;2023-03-01T10:35:19;98951.09;;;-0.08;54.63
72798;BME280;61084;55.816;37.036;2023-03-01T10:38:07;98949.41;;;-0.11;55.42
72798;BME280;61084;55.816;37.036;2023-03-01T10:40:34;98945.03;;;-0.06;55.98
72798;BME280;61084;55.816;37.036;2023-03-01T10:43:03;98936.38;;;0.00;54.45
72798;BME280;61084;55.816;37.036;2023-03-01T10:50:44;98929.53;;;-0.04;54.84
72798;BME280;61084;55.816;37.036;2023-03-01T10:53:23;98926.66;;;0.13;54.08
72798;BME280;61084;55.816;37.036;2023-03-01T10:58:34;98924.34;;;0.42;52.97
72798;BME280;61084;55.816;37.036;2023-03-01T11:01:06;98922.94;;;0.68;53.29
72798;BME280;61084;55.816;37.036;2023-03-01T11:06:30;98931.16;;;0.86;53.65
72798;BME280;61084;55.816;37.036;2023-03-01T11:08:56;98936.03;;;0.99;54.59
72798;BME280;61084;55.816;37.036;2023-03-01T11:19:20;98935.69;;;0.76;51.94
72798;BME280;61084;55.816;37.036;2023-03-01T11:22:07;98943.84;;;0.56;51.52
72798;BME280;61084;55.816;37.036;2023-03-01T11:24:40;98936.22;;;0.50;52.28
72798;BME280;61084;55.816;37.036;2023-03-01T11:27:19;98937.75;;;0.59;51.98
72798;BME280;61084;55.816;37.036;2023-03-01T11:30:09;98935.38;;;0.48;52.06
72798;BME280;61084;55.816;37.036;2023-03-01T11:35:26;98939.09;;;0.35;53.29
72798;BME280;61084;55.816;37.036;2023-03-01T11:43:54;98946.47;;;0.09;52.97
72798;BME280;61084;55.816;37.036;2023-03-01T11:49:33;98956.88;;;0.05;52.26
72798;BME280;61084;55.816;37.036;2023-03-01T11:57:57;98960.94;;;0.19;52.13
72798;BME280;61084;55.816;37.036;2023-03-01T12:33:45;98983.91;;;-0.16;52.00
72798;BME280;61084;55.816;37.036;2023-03-01T12:36:28;98983.88;;;-0.13;52.67
72798;BME280;61084;55.816;37.036;2023-03-01T12:41:48;98988.38;;;-0.26;52.37
72798;BME280;61084;55.816;37.036;2023-03-01T12:50:20;98994.66;;;-0.42;52.49
72798;BME280;61084;55.816;37.036;2023-03-01T12:52:54;98987.94;;;-0.52;51.81
72798;BME280;61084;55.816;37.036;2023-03-01T12:55:36;99002.69;;;-0.63;52.36
72798;BME280;61084;55.816;37.036;2023-03-01T13:01:56;98999.34;;;-0.69;52.91
72798;BME280;61084;55.816;37.036;2023-03-01T13:04:28;98984.88;;;-0.77;53.33
72798;BME280;61084;55.816;37.036;2023-03-01T13:07:04;98995.16;;;-0.75;54.08
72798;BME280;61084;55.816;37.036;2023-03-01T13:09:40;98978.00;;;-0.78;54.19
72798;BME280;61084;55.816;37.036;2023-03-01T13:15:32;98985.72;;;-0.76;54.10
72798;BME280;61084;55.816;37.036;2023-03-01T13:18:27;98985.72;;;-0.76;54.03
72798;BME280;61084;55.816;37.036;2023-03-01T13:20:55;98984.06;;;-0.79;54.84
72798;BME280;61084;55.816;37.036;2023-03-01T13:26:15;98973.69;;;-0.76;54.54
72798;BME280;61084;55.816;37.036;2023-03-01T13:34:00;98966.81;;;-0.75;54.69
72798;BME280;61084;55.816;37.036;2023-03-01T13:39:01;98953.97;;;-0.77;54.40
72798;BME280;61084;55.816;37.036;2023-03-01T13:44:21;98955.59;;;-0.71;54.57
72798;BME280;61084;55.816;37.036;2023-03-01T13:46:48;98944.50;;;-0.76;54.25
72798;BME280;61084;55.816;37.036;2023-03-01T13:49:21;98941.13;;;-0.80;54.04
72798;BME280;61084;55.816;37.036;2023-03-01T13:51:51;98944.59;;;-0.81;54.02
72798;BME280;61084;55.816;37.036;2023-03-01T13:54:28;98937.69;;;-0.80;54.84
72798;BME280;61084;55.816;37.036;2023-03-01T13:56:56;98936.88;;;-0.82;54.45
72798;BME280;61084;55.816;37.036;2023-03-01T13:59:23;98935.16;;;-0.82;54.59
72798;BME280;61084;55.816;37.036;2023-03-01T14:01:56;98925.78;;;-0.86;54.41
72798;BME280;61084;55.816;37.036;2023-03-01T14:04:30;98924.16;;;-0.93;55.07
72798;BME280;61084;55.816;37.036;2023-03-01T14:09:39;98928.53;;;-0.99;55.03
72798;BME280;61084;55.816;37.036;2023-03-01T14:12:35;98919.00;;;-0.93;55.13
72798;BME280;61084;55.816;37.036;2023-03-01T14:20:55;98906.16;;;-0.96;55.22
72798;BME280;61084;55.816;37.036;2023-03-01T14:23:23;98907.06;;;-0.97;55.22
72798;BME280;61084;55.816;37.036;2023-03-01T14:25:51;98910.47;;;-0.96;55.35
72798;BME280;61084;55.816;37.036;2023-03-01T14:28:18;98907.94;;;-0.99;55.61
72798;BME280;61084;55.816;37.036;2023-03-01T14:30:50;98913.13;;;-1.02;55.57
72798;BME280;61084;55.816;37.036;2023-03-01T14:33:31;98909.72;;;-1.04;56.08
72798;BME280;61084;55.816;37.036;2023-03-01T14:36:08;98914.13;;;-1.09;56.40
72798;BME280;61084;55.816;37.036;2023-03-01T14:41:12;98897.00;;;-1.13;56.88
72798;BME280;61084;55.816;37.036;2023-03-01T14:43:43;98896.19;;;-1.15;56.96
72798;BME280;61084;55.816;37.036;2023-03-01T14:46:21;98897.13;;;-1.22;57.20
72798;BME280;61084;55.816;37.036;2023-03-01T14:48:54;98892.00;;;-1.24;56.76
72798;BME280;61084;55.816;37.036;2023-03-01T14:51:22;98888.59;;;-1.26;56.39
72798;BME280;61084;55.816;37.036;2023-03-01T14:53:48;98892.94;;;-1.29;56.08
72798;BME280;61084;55.816;37.036;2023-03-01T14:56:16;98885.28;;;-1.34;56.02
72798;BME280;61084;55.816;37.036;2023-03-01T14:58:45;98886.22;;;-1.39;55.32
72798;BME280;61084;55.816;37.036;2023-03-01T15:01:15;98892.19;;;-1.39;55.74
72798;BME280;61084;55.816;37.036;2023-03-01T15:03:44;98893.09;;;-1.40;55.91
72798;BME280;61084;55.816;37.036;2023-03-01T15:06:15;98891.34;;;-1.38;55.51
72798;BME280;61084;55.816;37.036;2023-03-01T15:08:47;98887.06;;;-1.37;56.42
72798;BME280;61084;55.816;37.036;2023-03-01T15:13:40;98901.72;;;-1.44;55.27
72798;BME280;61084;55.816;37.036;2023-03-01T15:16:17;98889.69;;;-1.43;55.14